sensor_id;sensor_type;location;lat;lon;timestamp;temperature;humidity
34829;DHT22;21042;47.620;12.188;2022-12-07T00:01:28;3.20;99.90
34829;DHT22;21042;47.620;12.188;2022-12-07T00:03:58;3.20;99.90
34829;DHT22;21042;47.620;12.188;2022-12-07T00:06:37;3.30;99.90
34829;DHT22;21042;47.620;12.188;2022-12-07T00:09:05;3.30;99.90
34829;DHT22;21042;47.620;12.188;2022-12-07T00:11:32;3.20;99.90
34829;DHT22;21042;47.620;12.188;2022-12-07T00:14:02;3.20;99.90
34829;DHT22;21042;47.620;12.188;2022-12-07T00:16:32;3.20;99.90
34829;DHT22;21042;47.620;12.188;2022-12-07T00:18:59;3.30;99.90
34829;DHT22;21042;47.620;12.188;2022-12-07T00:21:29;3.30;99.90
34829;DHT22;21042;47.620;12.188;2022-12-07T00:23:56;3.30;99.90
34829;DHT22;21042;47.620;12.188;2022-12-07T00:26:35;3.30;99.90
34829;DHT22;21042;47.620;12.188;2022-12-07T00:29:06;3.30;99.90
34829;DHT22;21042;47.620;12.188;2022-12-07T00:31:36;3.30;99.90
34829;DHT22;21042;47.620;12.188;2022-12-07T00:34:07;3.20;99.90
34829;DHT22;21042;47.620;12.188;2022-12-07T00:36:34;3.20;99.90
34829;DHT22;21042;47.620;12.188;2022-12-07T00:39:01;3.10;99.90
34829;DHT22;21042;47.620;12.188;2022-12-07T00:41:29;3.00;99.90
34829;DHT22;21042;47.620;12.188;2022-12-07T00:43:57;3.00;99.90
34829;DHT22;21042;47.620;12.188;2022-12-07T00:46:24;3.00;99.90
34829;DHT22;21042;47.620;12.188;2022-12-07T00:48:52;3.00;99.90
34829;DHT22;21042;47.620;12.188;2022-12-07T00:51:21;3.00;99.90
34829;DHT22;21042;47.620;12.188;2022-12-07T00:53:49;3.00;99.90
34829;DHT22;21042;47.620;12.188;2022-12-07T00:56:21;3.00;99.90
34829;DHT22;21042;47.620;12.188;2022-12-07T00:58:56;3.00;99.90
34829;DHT22;21042;47.620;12.188;2022-12-07T01:01:24;3.00;99.90
34829;DHT22;21042;47.620;12.188;2022-12-07T01:03:52;3.10;99.90
34829;DHT22;21042;47.620;12.188;2022-12-07T01:06:20;3.00;99.90
34829;DHT22;21042;47.620;12.188;2022-12-07T01:08:48;3.00;99.90
34829;DHT22;21042;47.620;12.188;2022-12-07T01:11:17;3.10;99.90
34829;DHT22;21042;47.620;12.188;2022-12-07T01:13:44;3.10;99.90
34829;DHT22;21042;47.620;12.188;2022-12-07T01:16:14;3.10;99.90
34829;DHT22;21042;47.620;12.188;2022-12-07T01:18:41;3.10;99.90
34829;DHT22;21042;47.620;12.188;2022-12-07T01:21:15;3.10;99.90
34829;DHT22;21042;47.620;12.188;2022-12-07T01:23:43;3.10;99.90
34829;DHT22;21042;47.620;12.188;2022-12-07T01:26:13;3.10;99.90
34829;DHT22;21042;47.620;12.188;2022-12-07T01:28:40;3.10;99.90
34829;DHT22;21042;47.620;12.188;2022-12-07T01:31:13;3.10;99.90
34829;DHT22;21042;47.620;12.188;2022-12-07T01:33:45;3.10;99.90
34829;DHT22;21042;47.620;12.188;2022-12-07T01:36:17;3.10;99.90
34829;DHT22;21042;47.620;12.188;2022-12-07T01:38:45;3.10;99.90
34829;DHT22;21042;47.620;12.188;2022-12-07T01:41:13;3.10;99.90
34829;DHT22;21042;47.620;12.188;2022-12-07T01:46:46;3.20;99.90
34829;DHT22;21042;47.620;12.188;2022-12-07T01:49:37;3.20;99.90
34829;DHT22;21042;47.620;12.188;2022-12-07T01:52:28;3.20;99.90
34829;DHT22;21042;47.620;12.188;2022-12-07T01:55:10;3.20;99.90
34829;DHT22;21042;47.620;12.188;2022-12-07T01:57:47;3.20;99.90
34829;DHT22;21042;47.620;12.188;2022-12-07T02:00:16;3.20;99.90
34829;DHT22;21042;47.620;12.188;2022-12-07T02:03:08;3.20;99.90
34829;DHT22;21042;47.620;12.188;2022-12-07T02:05:37;3.10;99.90
34829;DHT22;21042;47.620;12.188;2022-12-07T02:08:04;3.10;99.90
34829;DHT22;21042;47.620;12.188;2022-12-07T02:10:32;3.00;99.90
34829;DHT22;21042;47.620;12.188;2022-12-07T02:24:10;3.00;99.90
34829;DHT22;21042;47.620;12.188;2022-12-07T02:27:00;3.10;99.90
34829;DHT22;21042;47.620;12.188;2022-12-07T02:32:37;3.00;99.90
34829;DHT22;21042;47.620;12.188;2022-12-07T02:35:10;3.00;99.90
34829;DHT22;21042;47.620;12.188;2022-12-07T02:40:31;3.00;99.90
34829;DHT22;21042;47.620;12.188;2022-12-07T02:45:35;3.00;99.90
34829;DHT22;21042;47.620;12.188;2022-12-07T02:48:04;3.00;99.90
34829;DHT22;21042;47.620;12.188;2022-12-07T02:50:31;3.00;99.90
34829;DHT22;21042;47.620;12.188;2022-12-07T02:52:58;3.00;99.90
34829;DHT22;21042;47.620;12.188;2022-12-07T02:55:33;3.00;99.90
34829;DHT22;21042;47.620;12.188;2022-12-07T02:58:28;3.00;99.90
34829;DHT22;21042;47.620;12.188;2022-12-07T03:06:49;3.00;99.90
34829;DHT22;21042;47.620;12.188;2022-12-07T03:14:38;3.10;99.90
34829;DHT22;21042;47.620;12.188;2022-12-07T03:17:18;3.00;99.90
34829;DHT22;21042;47.620;12.188;2022-12-07T03:19:48;3.10;99.90
34829;DHT22;21042;47.620;12.188;2022-12-07T03:22:17;3.10;99.90
34829;DHT22;21042;47.620;12.188;2022-12-07T03:24:52;3.10;99.90
34829;DHT22;21042;47.620;12.188;2022-12-07T03:27:26;3.10;99.90
34829;DHT22;21042;47.620;12.188;2022-12-07T03:30:02;3.00;99.90
34829;DHT22;21042;47.620;12.188;2022-12-07T03:32:37;3.10;99.90
34829;DHT22;21042;47.620;12.188;2022-12-07T03:38:54;3.10;99.90
34829;DHT22;21042;47.620;12.188;2022-12-07T03:41:26;3.10;99.90
34829;DHT22;21042;47.620;12.188;2022-12-07T03:43:52;3.10;99.90
34829;DHT22;21042;47.620;12.188;2022-12-07T03:46:44;3.10;99.90
34829;DHT22;21042;47.620;12.188;2022-12-07T03:49:18;3.10;99.90
34829;DHT22;21042;47.620;12.188;2022-12-07T03:55:14;3.20;99.90
34829;DHT22;21042;47.620;12.188;2022-12-07T03:57:43;3.10;99.90
34829;DHT22;21042;47.620;12.188;2022-12-07T04:00:12;3.10;99.90
34829;DHT22;21042;47.620;12.188;2022-12-07T04:02:40;3.10;99.90
34829;DHT22;21042;47.620;12.188;2022-12-07T04:05:08;3.10;99.90
34829;DHT22;21042;47.620;12.188;2022-12-07T04:07:35;3.00;99.90
34829;DHT22;21042;47.620;12.188;2022-12-07T04:10:03;3.00;99.90
34829;DHT22;21042;47.620;12.188;2022-12-07T04:12:30;3.00;99.90
34829;DHT22;21042;47.620;12.188;2022-12-07T04:14:57;3.00;99.90
34829;DHT22;21042;47.620;12.188;2022-12-07T04:17:24;3.00;99.90
34829;DHT22;21042;47.620;12.188;2022-12-07T04:19:50;3.00;99.90
34829;DHT22;21042;47.620;12.188;2022-12-07T04:22:17;3.00;99.90
34829;DHT22;21042;47.620;12.188;2022-12-07T04:24:44;3.00;99.90
34829;DHT22;21042;47.620;12.188;2022-12-07T04:27:10;3.00;99.90
34829;DHT22;21042;47.620;12.188;2022-12-07T04:29:37;3.00;99.90
34829;DHT22;21042;47.620;12.188;2022-12-07T04:32:04;3.00;99.90
34829;DHT22;21042;47.620;12.188;2022-12-07T04:34:31;2.90;99.90
34829;DHT22;21042;47.620;12.188;2022-12-07T04:36:57;2.90;99.90
34829;DHT22;21042;47.620;12.188;2022-12-07T04:39:27;2.90;99.90
34829;DHT22;21042;47.620;12.188;2022-12-07T04:41:55;3.00;99.90
34829;DHT22;21042;47.620;12.188;2022-12-07T04:44:23;2.90;99.90
34829;DHT22;21042;47.620;12.188;2022-12-07T04:46:51;2.90;99.90
34829;DHT22;21042;47.620;12.188;2022-12-07T04:49:18;2.90;99.90
34829;DHT22;21042;47.620;12.188;2022-12-07T04:51:45;2.90;99.90
34829;DHT22;21042;47.620;12.188;2022-12-07T04:54:13;2.90;99.90
34829;DHT22;21042;47.620;12.188;2022-12-07T04:56:40;2.90;99.90
34829;DHT22;21042;47.620;12.188;2022-12-07T04:59:07;2.90;99.90
34829;DHT22;21042;47.620;12.188;2022-12-07T05:01:35;2.90;99.90
34829;DHT22;21042;47.620;12.188;2022-12-07T05:04:02;2.90;99.90
34829;DHT22;21042;47.620;12.188;2022-12-07T05:06:29;2.90;99.90
34829;DHT22;21042;47.620;12.188;2022-12-07T05:08:55;2.90;99.90
34829;DHT22;21042;47.620;12.188;2022-12-07T05:11:22;2.90;99.90
34829;DHT22;21042;47.620;12.188;2022-12-07T05:14:14;2.90;99.90
34829;DHT22;21042;47.620;12.188;2022-12-07T05:16:41;2.90;99.90
34829;DHT22;21042;47.620;12.188;2022-12-07T05:19:09;2.90;99.90
34829;DHT22;21042;47.620;12.188;2022-12-07T05:21:37;3.00;99.90
34829;DHT22;21042;47.620;12.188;2022-12-07T05:24:05;3.00;99.90
34829;DHT22;21042;47.620;12.188;2022-12-07T05:26:32;3.00;99.90
34829;DHT22;21042;47.620;12.188;2022-12-07T05:28:59;3.00;99.90
34829;DHT22;21042;47.620;12.188;2022-12-07T05:31:26;3.00;99.90
34829;DHT22;21042;47.620;12.188;2022-12-07T05:33:54;3.00;99.90
34829;DHT22;21042;47.620;12.188;2022-12-07T05:36:21;3.10;99.90
34829;DHT22;21042;47.620;12.188;2022-12-07T05:38:48;3.10;99.90
34829;DHT22;21042;47.620;12.188;2022-12-07T05:41:17;3.00;99.90
34829;DHT22;21042;47.620;12.188;2022-12-07T05:44:03;3.00;99.90
34829;DHT22;21042;47.620;12.188;2022-12-07T05:46:30;3.00;99.90
34829;DHT22;21042;47.620;12.188;2022-12-07T05:48:57;3.00;99.90
34829;DHT22;21042;47.620;12.188;2022-12-07T05:51:23;3.00;99.90
34829;DHT22;21042;47.620;12.188;2022-12-07T05:53:50;3.00;99.90
34829;DHT22;21042;47.620;12.188;2022-12-07T05:56:17;3.00;99.90
34829;DHT22;21042;47.620;12.188;2022-12-07T05:58:43;3.00;99.90
34829;DHT22;21042;47.620;12.188;2022-12-07T06:01:29;3.00;99.90
34829;DHT22;21042;47.620;12.188;2022-12-07T06:03:55;3.00;99.90
34829;DHT22;21042;47.620;12.188;2022-12-07T06:06:22;3.10;99.90
34829;DHT22;21042;47.620;12.188;2022-12-07T06:08:49;3.10;99.90
34829;DHT22;21042;47.620;12.188;2022-12-07T06:11:16;3.10;99.90
34829;DHT22;21042;47.620;12.188;2022-12-07T06:14:01;3.00;99.90
34829;DHT22;21042;47.620;12.188;2022-12-07T06:16:28;3.10;99.90
34829;DHT22;21042;47.620;12.188;2022-12-07T06:18:54;3.00;99.90
34829;DHT22;21042;47.620;12.188;2022-12-07T06:21:21;3.00;99.90
34829;DHT22;21042;47.620;12.188;2022-12-07T06:23:48;3.00;99.90
34829;DHT22;21042;47.620;12.188;2022-12-07T06:26:15;3.00;99.90
34829;DHT22;21042;47.620;12.188;2022-12-07T06:28:41;3.00;99.90
34829;DHT22;21042;47.620;12.188;2022-12-07T06:31:08;3.10;99.90
34829;DHT22;21042;47.620;12.188;2022-12-07T06:33:40;3.10;99.90
34829;DHT22;21042;47.620;12.188;2022-12-07T06:36:08;3.10;99.90
34829;DHT22;21042;47.620;12.188;2022-12-07T06:38:35;3.10;99.90
34829;DHT22;21042;47.620;12.188;2022-12-07T06:41:02;3.10;99.90
34829;DHT22;21042;47.620;12.188;2022-12-07T06:43:29;3.10;99.90
34829;DHT22;21042;47.620;12.188;2022-12-07T06:45:56;3.00;99.90
34829;DHT22;21042;47.620;12.188;2022-12-07T06:48:23;3.00;99.90
34829;DHT22;21042;47.620;12.188;2022-12-07T06:50:49;3.10;99.90
34829;DHT22;21042;47.620;12.188;2022-12-07T06:53:21;3.10;99.90
34829;DHT22;21042;47.620;12.188;2022-12-07T06:55:48;3.00;99.90
34829;DHT22;21042;47.620;12.188;2022-12-07T06:58:15;3.00;99.90
34829;DHT22;21042;47.620;12.188;2022-12-07T07:00:41;3.00;99.90
34829;DHT22;21042;47.620;12.188;2022-12-07T07:03:08;3.00;99.90
34829;DHT22;21042;47.620;12.188;2022-12-07T07:05:35;3.10;99.90
34829;DHT22;21042;47.620;12.188;2022-12-07T07:08:03;3.00;99.90
34829;DHT22;21042;47.620;12.188;2022-12-07T07:10:48;3.00;99.90
34829;DHT22;21042;47.620;12.188;2022-12-07T07:13:14;3.00;99.90
34829;DHT22;21042;47.620;12.188;2022-12-07T07:15:41;3.00;99.90
34829;DHT22;21042;47.620;12.188;2022-12-07T07:18:08;3.00;99.90
34829;DHT22;21042;47.620;12.188;2022-12-07T07:20:37;2.90;99.90
34829;DHT22;21042;47.620;12.188;2022-12-07T07:23:04;2.90;99.90
34829;DHT22;21042;47.620;12.188;2022-12-07T07:25:31;2.90;99.90
34829;DHT22;21042;47.620;12.188;2022-12-07T07:27:58;2.90;99.90
34829;DHT22;21042;47.620;12.188;2022-12-07T07:30:25;2.80;99.90
34829;DHT22;21042;47.620;12.188;2022-12-07T07:32:57;2.80;99.90
34829;DHT22;21042;47.620;12.188;2022-12-07T07:35:25;2.80;99.90
34829;DHT22;21042;47.620;12.188;2022-12-07T07:37:52;2.80;99.90
34829;DHT22;21042;47.620;12.188;2022-12-07T07:40:18;2.90;99.90
34829;DHT22;21042;47.620;12.188;2022-12-07T07:42:49;2.80;99.90
34829;DHT22;21042;47.620;12.188;2022-12-07T07:45:16;2.90;99.90
34829;DHT22;21042;47.620;12.188;2022-12-07T07:47:43;2.90;99.90
34829;DHT22;21042;47.620;12.188;2022-12-07T07:50:10;2.80;99.90
34829;DHT22;21042;47.620;12.188;2022-12-07T07:52:37;2.80;99.90
34829;DHT22;21042;47.620;12.188;2022-12-07T07:55:04;2.80;99.90
34829;DHT22;21042;47.620;12.188;2022-12-07T07:57:31;2.80;99.90
34829;DHT22;21042;47.620;12.188;2022-12-07T07:59:58;2.90;99.90
34829;DHT22;21042;47.620;12.188;2022-12-07T08:02:25;2.80;99.90
34829;DHT22;21042;47.620;12.188;2022-12-07T08:04:52;2.80;99.90
34829;DHT22;21042;47.620;12.188;2022-12-07T08:07:19;2.80;99.90
34829;DHT22;21042;47.620;12.188;2022-12-07T08:09:46;2.80;99.90
34829;DHT22;21042;47.620;12.188;2022-12-07T08:12:13;2.80;99.90
34829;DHT22;21042;47.620;12.188;2022-12-07T08:14:40;2.80;99.90
34829;DHT22;21042;47.620;12.188;2022-12-07T08:17:07;2.80;99.90
34829;DHT22;21042;47.620;12.188;2022-12-07T08:19:34;2.80;99.90
34829;DHT22;21042;47.620;12.188;2022-12-07T08:22:01;2.80;99.90
34829;DHT22;21042;47.620;12.188;2022-12-07T08:24:28;2.60;99.90
34829;DHT22;21042;47.620;12.188;2022-12-07T08:26:55;2.50;99.90
34829;DHT22;21042;47.620;12.188;2022-12-07T08:29:21;2.30;99.90
34829;DHT22;21042;47.620;12.188;2022-12-07T08:31:48;2.20;99.90
34829;DHT22;21042;47.620;12.188;2022-12-07T08:34:15;2.10;99.90
34829;DHT22;21042;47.620;12.188;2022-12-07T08:36:41;2.10;99.90
34829;DHT22;21042;47.620;12.188;2022-12-07T08:39:08;2.00;99.90
34829;DHT22;21042;47.620;12.188;2022-12-07T08:41:55;2.00;99.90
34829;DHT22;21042;47.620;12.188;2022-12-07T08:44:22;2.00;99.90
34829;DHT22;21042;47.620;12.188;2022-12-07T08:46:57;2.10;99.90
34829;DHT22;21042;47.620;12.188;2022-12-07T08:49:40;2.00;99.90
34829;DHT22;21042;47.620;12.188;2022-12-07T08:52:07;2.10;99.90
34829;DHT22;21042;47.620;12.188;2022-12-07T08:54:36;2.20;99.90
34829;DHT22;21042;47.620;12.188;2022-12-07T08:57:04;2.20;99.90
34829;DHT22;21042;47.620;12.188;2022-12-07T08:59:33;2.20;99.90
34829;DHT22;21042;47.620;12.188;2022-12-07T09:02:01;2.30;99.90
34829;DHT22;21042;47.620;12.188;2022-12-07T09:04:28;2.30;99.90
34829;DHT22;21042;47.620;12.188;2022-12-07T09:06:55;2.40;99.90
34829;DHT22;21042;47.620;12.188;2022-12-07T09:09:22;2.30;99.90
34829;DHT22;21042;47.620;12.188;2022-12-07T09:11:48;2.30;99.90
34829;DHT22;21042;47.620;12.188;2022-12-07T09:14:15;2.30;99.90
34829;DHT22;21042;47.620;12.188;2022-12-07T09:16:43;2.40;99.90
34829;DHT22;21042;47.620;12.188;2022-12-07T09:19:10;2.40;99.90
34829;DHT22;21042;47.620;12.188;2022-12-07T09:21:37;2.40;99.90
34829;DHT22;21042;47.620;12.188;2022-12-07T09:24:03;2.50;99.90
34829;DHT22;21042;47.620;12.188;2022-12-07T09:26:30;2.50;99.90
34829;DHT22;21042;47.620;12.188;2022-12-07T09:28:57;2.50;99.90
34829;DHT22;21042;47.620;12.188;2022-12-07T09:31:24;2.60;99.90
34829;DHT22;21042;47.620;12.188;2022-12-07T09:33:59;2.70;99.90
34829;DHT22;21042;47.620;12.188;2022-12-07T09:36:28;2.60;99.90
34829;DHT22;21042;47.620;12.188;2022-12-07T09:38:55;2.70;99.90
34829;DHT22;21042;47.620;12.188;2022-12-07T09:41:22;2.80;99.90
34829;DHT22;21042;47.620;12.188;2022-12-07T09:43:50;2.80;99.90
34829;DHT22;21042;47.620;12.188;2022-12-07T09:46:19;2.80;99.90
34829;DHT22;21042;47.620;12.188;2022-12-07T09:48:47;2.90;99.90
34829;DHT22;21042;47.620;12.188;2022-12-07T09:51:23;3.00;99.90
34829;DHT22;21042;47.620;12.188;2022-12-07T09:53:53;3.00;99.90
34829;DHT22;21042;47.620;12.188;2022-12-07T09:56:22;3.10;99.90
34829;DHT22;21042;47.620;12.188;2022-12-07T09:58:50;3.10;99.90
34829;DHT22;21042;47.620;12.188;2022-12-07T10:01:20;3.20;99.90
34829;DHT22;21042;47.620;12.188;2022-12-07T10:03:49;4.10;99.90
34829;DHT22;21042;47.620;12.188;2022-12-07T10:06:16;3.20;99.90
34829;DHT22;21042;47.620;12.188;2022-12-07T10:08:42;3.20;99.90
34829;DHT22;21042;47.620;12.188;2022-12-07T10:11:10;3.20;99.90
34829;DHT22;21042;47.620;12.188;2022-12-07T10:13:40;3.30;99.90
34829;DHT22;21042;47.620;12.188;2022-12-07T10:16:40;3.30;99.90
34829;DHT22;21042;47.620;12.188;2022-12-07T10:24:35;3.50;99.90
34829;DHT22;21042;47.620;12.188;2022-12-07T10:27:29;3.50;99.90
34829;DHT22;21042;47.620;12.188;2022-12-07T10:29:57;3.60;99.90
34829;DHT22;21042;47.620;12.188;2022-12-07T10:32:35;3.60;99.90
34829;DHT22;21042;47.620;12.188;2022-12-07T10:35:25;3.70;99.90
34829;DHT22;21042;47.620;12.188;2022-12-07T10:37:54;3.80;99.90
34829;DHT22;21042;47.620;12.188;2022-12-07T10:40:35;3.90;99.90
34829;DHT22;21042;47.620;12.188;2022-12-07T10:43:30;4.00;99.90
34829;DHT22;21042;47.620;12.188;2022-12-07T10:51:46;3.90;99.90
34829;DHT22;21042;47.620;12.188;2022-12-07T10:54:42;3.60;99.90
34829;DHT22;21042;47.620;12.188;2022-12-07T11:00:28;3.50;99.90
34829;DHT22;21042;47.620;12.188;2022-12-07T11:05:47;3.70;99.90
34829;DHT22;21042;47.620;12.188;2022-12-07T11:08:18;3.70;99.90
34829;DHT22;21042;47.620;12.188;2022-12-07T11:10:55;3.70;99.90
34829;DHT22;21042;47.620;12.188;2022-12-07T11:13:48;3.60;99.90
34829;DHT22;21042;47.620;12.188;2022-12-07T11:22:06;3.40;99.90
34829;DHT22;21042;47.620;12.188;2022-12-07T11:30:20;3.70;99.90
34829;DHT22;21042;47.620;12.188;2022-12-07T11:32:53;3.80;99.90
34829;DHT22;21042;47.620;12.188;2022-12-07T11:35:48;3.70;99.90
34829;DHT22;21042;47.620;12.188;2022-12-07T11:38:18;3.70;99.90
34829;DHT22;21042;47.620;12.188;2022-12-07T11:40:56;3.70;99.90
34829;DHT22;21042;47.620;12.188;2022-12-07T11:44:00;3.70;99.90
34829;DHT22;21042;47.620;12.188;2022-12-07T11:52:25;3.70;99.90
34829;DHT22;21042;47.620;12.188;2022-12-07T11:54:54;3.70;99.90
34829;DHT22;21042;47.620;12.188;2022-12-07T11:57:37;3.60;99.90
34829;DHT22;21042;47.620;12.188;2022-12-07T12:00:14;3.70;99.90
34829;DHT22;21042;47.620;12.188;2022-12-07T12:02:51;3.70;99.90
34829;DHT22;21042;47.620;12.188;2022-12-07T12:05:21;3.70;99.90
34829;DHT22;21042;47.620;12.188;2022-12-07T12:11:24;3.90;99.90
34829;DHT22;21042;47.620;12.188;2022-12-07T12:22:53;3.60;99.90
34829;DHT22;21042;47.620;12.188;2022-12-07T12:25:30;3.70;99.90
34829;DHT22;21042;47.620;12.188;2022-12-07T12:27:58;3.60;99.90
34829;DHT22;21042;47.620;12.188;2022-12-07T12:30:37;3.70;99.90
34829;DHT22;21042;47.620;12.188;2022-12-07T12:33:04;3.80;99.90
34829;DHT22;21042;47.620;12.188;2022-12-07T12:35:34;3.80;99.90
34829;DHT22;21042;47.620;12.188;2022-12-07T12:40:54;3.80;99.90
34829;DHT22;21042;47.620;12.188;2022-12-07T12:43:51;4.00;99.90
34829;DHT22;21042;47.620;12.188;2022-12-07T12:54:24;4.30;99.90
34829;DHT22;21042;47.620;12.188;2022-12-07T13:02:30;4.40;99.90
34829;DHT22;21042;47.620;12.188;2022-12-07T13:26:38;4.50;99.90
34829;DHT22;21042;47.620;12.188;2022-12-07T13:31:42;4.50;99.90
34829;DHT22;21042;47.620;12.188;2022-12-07T13:34:29;4.50;99.90
34829;DHT22;21042;47.620;12.188;2022-12-07T13:36:57;4.50;99.90
34829;DHT22;21042;47.620;12.188;2022-12-07T13:39:25;4.50;99.90
34829;DHT22;21042;47.620;12.188;2022-12-07T13:41:58;4.40;99.90
34829;DHT22;21042;47.620;12.188;2022-12-07T13:44:27;4.20;99.90
34829;DHT22;21042;47.620;12.188;2022-12-07T13:47:09;4.20;99.90
34829;DHT22;21042;47.620;12.188;2022-12-07T13:49:48;4.20;99.90
34829;DHT22;21042;47.620;12.188;2022-12-07T13:52:45;4.30;99.90
34829;DHT22;21042;47.620;12.188;2022-12-07T13:55:15;4.30;99.90
34829;DHT22;21042;47.620;12.188;2022-12-07T13:57:44;4.40;99.90
34829;DHT22;21042;47.620;12.188;2022-12-07T14:00:19;4.50;99.90
34829;DHT22;21042;47.620;12.188;2022-12-07T14:02:56;4.50;99.90
34829;DHT22;21042;47.620;12.188;2022-12-07T14:05:25;4.40;99.90
34829;DHT22;21042;47.620;12.188;2022-12-07T14:08:01;4.50;99.90
34829;DHT22;21042;47.620;12.188;2022-12-07T14:10:35;4.40;99.90
34829;DHT22;21042;47.620;12.188;2022-12-07T14:13:25;4.40;99.90
34829;DHT22;21042;47.620;12.188;2022-12-07T14:15:53;4.40;99.90
34829;DHT22;21042;47.620;12.188;2022-12-07T14:18:46;4.30;99.90
34829;DHT22;21042;47.620;12.188;2022-12-07T14:23:40;4.30;99.90
34829;DHT22;21042;47.620;12.188;2022-12-07T14:26:15;4.30;99.90
34829;DHT22;21042;47.620;12.188;2022-12-07T14:28:43;4.20;99.90
34829;DHT22;21042;47.620;12.188;2022-12-07T14:31:15;4.30;99.90
34829;DHT22;21042;47.620;12.188;2022-12-07T14:33:50;4.20;99.90
34829;DHT22;21042;47.620;12.188;2022-12-07T14:36:17;4.20;99.90
34829;DHT22;21042;47.620;12.188;2022-12-07T14:38:44;4.20;99.90
34829;DHT22;21042;47.620;12.188;2022-12-07T14:41:14;4.10;99.90
34829;DHT22;21042;47.620;12.188;2022-12-07T14:44:00;4.10;99.90
34829;DHT22;21042;47.620;12.188;2022-12-07T14:46:48;4.10;99.90
34829;DHT22;21042;47.620;12.188;2022-12-07T14:49:15;4.10;99.90
34829;DHT22;21042;47.620;12.188;2022-12-07T14:51:58;4.10;99.90
34829;DHT22;21042;47.620;12.188;2022-12-07T14:54:45;4.10;99.90
34829;DHT22;21042;47.620;12.188;2022-12-07T14:57:11;4.10;99.90
34829;DHT22;21042;47.620;12.188;2022-12-07T14:59:38;4.00;99.90
34829;DHT22;21042;47.620;12.188;2022-12-07T15:02:12;4.00;99.90
34829;DHT22;21042;47.620;12.188;2022-12-07T15:04:40;4.00;99.90
34829;DHT22;21042;47.620;12.188;2022-12-07T15:07:18;3.90;99.90
34829;DHT22;21042;47.620;12.188;2022-12-07T15:09:45;3.90;99.90
34829;DHT22;21042;47.620;12.188;2022-12-07T15:12:12;3.90;99.90
34829;DHT22;21042;47.620;12.188;2022-12-07T15:14:38;3.80;99.90
34829;DHT22;21042;47.620;12.188;2022-12-07T15:17:05;3.90;99.90
34829;DHT22;21042;47.620;12.188;2022-12-07T15:19:36;3.80;99.90
34829;DHT22;21042;47.620;12.188;2022-12-07T15:22:02;3.80;99.90
34829;DHT22;21042;47.620;12.188;2022-12-07T15:24:29;3.90;99.90
34829;DHT22;21042;47.620;12.188;2022-12-07T15:26:56;3.90;99.90
34829;DHT22;21042;47.620;12.188;2022-12-07T15:29:23;3.90;99.90
34829;DHT22;21042;47.620;12.188;2022-12-07T15:31:51;3.80;99.90
34829;DHT22;21042;47.620;12.188;2022-12-07T15:34:25;3.70;99.90
34829;DHT22;21042;47.620;12.188;2022-12-07T15:36:52;3.70;99.90
34829;DHT22;21042;47.620;12.188;2022-12-07T15:39:18;3.80;99.90
34829;DHT22;21042;47.620;12.188;2022-12-07T15:41:45;3.80;99.90
34829;DHT22;21042;47.620;12.188;2022-12-07T15:44:13;3.80;99.90
34829;DHT22;21042;47.620;12.188;2022-12-07T15:47:18;3.70;99.90
34829;DHT22;21042;47.620;12.188;2022-12-07T15:49:45;3.70;99.90
34829;DHT22;21042;47.620;12.188;2022-12-07T15:52:11;3.60;99.90
34829;DHT22;21042;47.620;12.188;2022-12-07T15:54:38;3.60;99.90
34829;DHT22;21042;47.620;12.188;2022-12-07T15:57:06;3.60;99.90
34829;DHT22;21042;47.620;12.188;2022-12-07T15:59:32;3.60;99.90
34829;DHT22;21042;47.620;12.188;2022-12-07T16:01:59;3.60;99.90
34829;DHT22;21042;47.620;12.188;2022-12-07T16:04:27;3.60;99.90
34829;DHT22;21042;47.620;12.188;2022-12-07T16:06:55;3.60;99.90
34829;DHT22;21042;47.620;12.188;2022-12-07T16:09:21;3.50;99.90
34829;DHT22;21042;47.620;12.188;2022-12-07T16:11:48;3.50;99.90
34829;DHT22;21042;47.620;12.188;2022-12-07T16:14:16;3.50;99.90
34829;DHT22;21042;47.620;12.188;2022-12-07T16:16:43;3.50;99.90
34829;DHT22;21042;47.620;12.188;2022-12-07T16:19:10;3.50;99.90
34829;DHT22;21042;47.620;12.188;2022-12-07T16:21:37;3.50;99.90
34829;DHT22;21042;47.620;12.188;2022-12-07T16:24:05;3.50;99.90
34829;DHT22;21042;47.620;12.188;2022-12-07T16:26:32;3.40;99.90
34829;DHT22;21042;47.620;12.188;2022-12-07T16:28:59;3.40;99.90
34829;DHT22;21042;47.620;12.188;2022-12-07T16:31:27;3.40;99.90
34829;DHT22;21042;47.620;12.188;2022-12-07T16:33:57;3.50;99.90
34829;DHT22;21042;47.620;12.188;2022-12-07T16:36:24;3.50;99.90
34829;DHT22;21042;47.620;12.188;2022-12-07T16:39:13;3.40;99.90
34829;DHT22;21042;47.620;12.188;2022-12-07T16:41:40;3.40;99.90
34829;DHT22;21042;47.620;12.188;2022-12-07T16:44:12;3.40;99.90
34829;DHT22;21042;47.620;12.188;2022-12-07T16:46:40;3.40;99.90
34829;DHT22;21042;47.620;12.188;2022-12-07T16:49:11;3.40;99.90
34829;DHT22;21042;47.620;12.188;2022-12-07T16:51:38;3.40;99.90
34829;DHT22;21042;47.620;12.188;2022-12-07T16:54:05;3.40;99.90
34829;DHT22;21042;47.620;12.188;2022-12-07T16:56:32;3.40;99.90
34829;DHT22;21042;47.620;12.188;2022-12-07T16:58:59;3.40;99.90
34829;DHT22;21042;47.620;12.188;2022-12-07T17:01:26;3.50;99.90
34829;DHT22;21042;47.620;12.188;2022-12-07T17:03:58;4.00;99.90
34829;DHT22;21042;47.620;12.188;2022-12-07T17:06:27;3.40;99.90
34829;DHT22;21042;47.620;12.188;2022-12-07T17:08:54;3.40;99.90
34829;DHT22;21042;47.620;12.188;2022-12-07T17:11:23;3.30;99.90
34829;DHT22;21042;47.620;12.188;2022-12-07T17:13:51;3.30;99.90
34829;DHT22;21042;47.620;12.188;2022-12-07T17:16:37;3.30;99.90
34829;DHT22;21042;47.620;12.188;2022-12-07T17:19:07;3.40;99.90
34829;DHT22;21042;47.620;12.188;2022-12-07T17:21:34;3.40;99.90
34829;DHT22;21042;47.620;12.188;2022-12-07T17:24:04;3.40;99.90
34829;DHT22;21042;47.620;12.188;2022-12-07T17:26:31;3.40;99.90
34829;DHT22;21042;47.620;12.188;2022-12-07T17:29:02;3.40;99.90
34829;DHT22;21042;47.620;12.188;2022-12-07T17:31:29;3.40;99.90
34829;DHT22;21042;47.620;12.188;2022-12-07T17:33:56;3.30;99.90
34829;DHT22;21042;47.620;12.188;2022-12-07T17:36:26;3.40;99.90
34829;DHT22;21042;47.620;12.188;2022-12-07T17:38:54;3.40;99.90
34829;DHT22;21042;47.620;12.188;2022-12-07T17:41:26;3.30;99.90
34829;DHT22;21042;47.620;12.188;2022-12-07T17:44:14;3.30;99.90
34829;DHT22;21042;47.620;12.188;2022-12-07T17:46:42;3.30;99.90
34829;DHT22;21042;47.620;12.188;2022-12-07T17:49:09;3.40;99.90
34829;DHT22;21042;47.620;12.188;2022-12-07T17:51:36;3.30;99.90
34829;DHT22;21042;47.620;12.188;2022-12-07T17:54:22;3.30;99.90
34829;DHT22;21042;47.620;12.188;2022-12-07T17:56:48;3.20;99.90
34829;DHT22;21042;47.620;12.188;2022-12-07T17:59:15;3.20;99.90
34829;DHT22;21042;47.620;12.188;2022-12-07T18:01:43;3.20;99.90
34829;DHT22;21042;47.620;12.188;2022-12-07T18:04:11;3.20;99.90